createdAt,value
2023-04-16T00:01:57.623Z,98760.11
2023-04-16T00:04:28.800Z,98761.70
2023-04-16T00:06:59.595Z,98759.81
2023-04-16T00:09:30.438Z,98763.73
2023-04-16T00:12:01.852Z,98761.45
2023-04-16T00:14:32.674Z,98760.28
2023-04-16T00:17:03.797Z,98760.45
2023-04-16T00:19:34.630Z,98760.24
2023-04-16T00:22:05.681Z,98760.27
2023-04-16T00:24:36.951Z,98758.64
2023-04-16T00:27:09.017Z,98753.67
2023-04-16T00:29:39.812Z,98754.92
2023-04-16T00:32:10.761Z,98759.42
2023-04-16T00:34:41.427Z,98761.35
2023-04-16T00:37:12.325Z,98772.08
2023-04-16T00:39:43.204Z,98767.58
2023-04-16T00:42:14.033Z,98766.86
2023-04-16T00:44:44.906Z,98762.86
2023-04-16T00:47:16.248Z,98766.34
2023-04-16T00:49:47.779Z,98770.67
2023-04-16T00:52:18.714Z,98769.23
2023-04-16T00:54:49.963Z,98772.46
2023-04-16T00:57:21.200Z,98772.92
2023-04-16T00:59:52.703Z,98773.55
2023-04-16T01:02:23.624Z,98775.48
2023-04-16T01:04:54.663Z,98780.90
2023-04-16T01:07:25.504Z,98778.34
2023-04-16T01:09:56.552Z,98777.23
2023-04-16T01:12:27.545Z,98775.27
2023-04-16T01:14:59.093Z,98776.75
2023-04-16T01:17:29.832Z,98776.77
2023-04-16T01:20:03.056Z,98776.77
2023-04-16T01:22:33.704Z,98777.06
2023-04-16T01:25:04.738Z,98779.11
2023-04-16T01:27:35.603Z,98783.17
2023-04-16T01:30:08.752Z,98785.20
2023-04-16T01:32:39.887Z,98800.59
2023-04-16T01:35:11.048Z,98803.40
2023-04-16T01:37:44.185Z,98805.48
2023-04-16T01:40:15.612Z,98808.04
2023-04-16T01:42:46.693Z,98810.14
2023-04-16T01:45:17.668Z,98812.30
2023-04-16T01:47:48.367Z,98812.70
2023-04-16T01:50:20.177Z,98813.55
2023-04-16T01:52:53.321Z,98813.17
2023-04-16T01:55:24.397Z,98812.96
2023-04-16T01:57:55.199Z,98813.36
2023-04-16T02:00:26.178Z,98809.95
2023-04-16T02:02:57.172Z,98812.48
2023-04-16T02:05:28.056Z,98809.94
2023-04-16T02:07:58.973Z,98811.18
2023-04-16T02:10:29.646Z,98816.27
2023-04-16T02:13:00.471Z,98813.59
2023-04-16T02:15:31.205Z,98819.30
2023-04-16T02:18:01.888Z,98820.98
2023-04-16T02:20:32.712Z,98824.86
2023-04-16T02:23:03.519Z,98827.37
2023-04-16T02:25:34.126Z,98827.98
2023-04-16T02:28:05.070Z,98822.48
2023-04-16T02:30:36.341Z,98827.44
2023-04-16T02:33:07.951Z,98834.45
2023-04-16T02:35:39.547Z,98831.80
2023-04-16T02:38:11.111Z,98835.86
2023-04-16T02:40:42.579Z,98841.32
2023-04-16T02:43:13.555Z,98842.44
2023-04-16T02:45:45.044Z,98843.08
2023-04-16T02:48:15.822Z,98845.46
2023-04-16T02:50:46.760Z,98843.45
2023-04-16T02:53:17.785Z,98845.58
2023-04-16T02:55:53.838Z,98840.52
2023-04-16T02:58:26.444Z,98851.06
2023-04-16T03:00:57.474Z,98850.73
2023-04-16T03:03:28.342Z,98859.17
2023-04-16T03:05:59.152Z,98864.27
2023-04-16T03:08:30.681Z,98857.83
2023-04-16T03:11:01.756Z,98860.36
2023-04-16T03:13:32.491Z,98864.15
2023-04-16T03:16:03.610Z,98862.20
2023-04-16T03:18:34.583Z,98870.79
2023-04-16T03:21:06.347Z,98880.41
2023-04-16T03:23:37.538Z,98881.77
2023-04-16T03:26:08.529Z,98884.30
2023-04-16T03:28:39.424Z,98885.29
2023-04-16T03:31:10.263Z,98887.09
2023-04-16T03:33:41.385Z,98893.80
2023-04-16T03:36:12.844Z,98896.63
2023-04-16T03:38:43.564Z,98897.48
2023-04-16T03:41:14.297Z,98895.30
2023-04-16T03:43:44.968Z,98896.52
2023-04-16T03:46:15.900Z,98898.70
2023-04-16T03:48:46.826Z,98897.60
2023-04-16T03:51:17.484Z,98901.04
2023-04-16T03:53:48.141Z,98899.59
2023-04-16T03:56:19.458Z,98902.33
2023-04-16T03:58:50.075Z,98902.84
2023-04-16T04:01:20.809Z,98902.32
2023-04-16T04:03:51.607Z,98911.87
2023-04-16T04:06:22.494Z,98916.23
2023-04-16T04:08:53.556Z,98915.98
2023-04-16T04:11:24.342Z,98921.26
2023-04-16T04:13:55.128Z,98923.15
2023-04-16T04:16:26.034Z,98927.98
2023-04-16T04:18:56.992Z,98928.64
2023-04-16T04:21:28.501Z,98932.75
2023-04-16T04:23:59.124Z,98935.42
2023-04-16T04:26:30.036Z,98937.17
2023-04-16T04:29:00.871Z,98934.22
2023-04-16T04:31:31.759Z,98936.27
2023-04-16T04:34:02.670Z,98937.58
2023-04-16T04:36:33.918Z,98937.33
2023-04-16T04:39:04.736Z,98944.66
2023-04-16T04:41:36.320Z,98945.08
2023-04-16T04:44:07.782Z,98949.44
2023-04-16T04:46:38.442Z,98957.52
2023-04-16T04:49:09.523Z,98962.44
2023-04-16T04:51:40.746Z,98966.93
2023-04-16T04:54:11.594Z,98970.91
2023-04-16T04:56:45.335Z,98976.17
2023-04-16T04:59:16.075Z,98979.05
2023-04-16T05:01:46.760Z,98990.53
2023-04-16T05:04:18.138Z,98995.80
2023-04-16T05:06:49.019Z,98990.70
2023-04-16T05:09:19.760Z,98994.81
2023-04-16T05:11:50.499Z,98996.73
2023-04-16T05:14:21.544Z,98999.42
2023-04-16T05:16:52.301Z,98998.34
2023-04-16T05:19:23.112Z,98997.33
2023-04-16T05:21:53.868Z,98993.52
2023-04-16T05:24:25.223Z,99006.39
2023-04-16T05:26:56.970Z,99009.24
2023-04-16T05:29:27.702Z,99014.36
2023-04-16T05:31:58.652Z,99016.61
2023-04-16T05:34:29.606Z,99021.98
2023-04-16T05:37:01.054Z,99024.63
2023-04-16T05:39:31.672Z,99031.38
2023-04-16T05:42:02.383Z,99028.91
2023-04-16T05:44:33.343Z,99030.10
2023-04-16T05:47:04.054Z,99032.48
2023-04-16T05:49:34.842Z,99032.41
2023-04-16T05:52:05.881Z,99039.46
2023-04-16T05:54:36.683Z,99036.84
2023-04-16T05:57:07.464Z,99045.70
2023-04-16T05:59:38.212Z,99048.76
2023-04-16T06:02:09.741Z,99050.70
2023-04-16T06:04:40.507Z,99048.63
2023-04-16T06:07:11.340Z,99050.61
2023-04-16T06:09:42.098Z,99052.47
2023-04-16T06:12:12.911Z,99053.77
2023-04-16T06:14:43.760Z,99049.90
2023-04-16T06:17:14.639Z,99058.42
2023-04-16T06:19:46.891Z,99057.77
2023-04-16T06:22:17.812Z,99061.24
2023-04-16T06:24:48.560Z,99058.20
2023-04-16T06:27:19.274Z,99060.11
2023-04-16T06:29:50.712Z,99062.10
2023-04-16T06:32:21.832Z,99060.03
2023-04-16T06:34:52.809Z,99062.63
2023-04-16T06:37:23.876Z,99061.80
2023-04-16T06:39:54.649Z,99058.21
2023-04-16T06:42:26.160Z,99061.53
2023-04-16T06:44:57.058Z,99063.95
2023-04-16T06:47:28.300Z,99067.83
2023-04-16T06:49:59.079Z,99065.70
2023-04-16T06:52:30.081Z,99067.41
2023-04-16T06:55:01.110Z,99065.04
2023-04-16T06:57:32.034Z,99066.03
2023-04-16T07:00:03.227Z,99071.64
2023-04-16T07:02:34.179Z,99071.38
2023-04-16T07:05:05.399Z,99074.33
2023-04-16T07:07:36.495Z,99072.04
2023-04-16T07:10:08.391Z,99078.88
2023-04-16T07:12:39.421Z,99082.48
2023-04-16T07:15:12.556Z,99082.49
2023-04-16T07:17:43.398Z,99086.13
2023-04-16T07:20:15.374Z,99085.46
2023-04-16T07:22:46.394Z,99090.21
2023-04-16T07:25:17.274Z,99089.59
2023-04-16T07:27:48.201Z,99097.85
2023-04-16T07:30:19.108Z,99097.66
2023-04-16T07:32:49.981Z,99094.58
2023-04-16T07:35:21.159Z,99098.56
2023-04-16T07:37:52.129Z,99095.49
2023-04-16T07:40:23.041Z,99091.33
2023-04-16T07:42:54.148Z,99095.41
2023-04-16T07:45:25.061Z,99092.91
2023-04-16T07:47:56.776Z,99093.80
2023-04-16T07:50:28.351Z,99095.47
2023-04-16T07:52:59.616Z,99098.63
2023-04-16T07:55:30.856Z,99100.46
2023-04-16T07:58:02.857Z,99104.02
2023-04-16T08:00:34.306Z,99103.81
2023-04-16T08:03:05.886Z,99107.54
2023-04-16T08:05:37.639Z,99111.23
2023-04-16T08:08:08.663Z,99112.86
2023-04-16T08:10:39.797Z,99117.48
2023-04-16T08:13:10.795Z,99125.83
2023-04-16T08:15:41.959Z,99125.54
2023-04-16T08:18:15.839Z,99120.39
2023-04-16T08:20:45.050Z,99122.54
2023-04-16T08:23:15.921Z,99124.35
2023-04-16T08:25:46.875Z,99124.42
2023-04-16T08:28:17.851Z,99126.33
2023-04-16T08:30:48.694Z,99128.64
2023-04-16T08:33:19.639Z,99131.16
2023-04-16T08:35:50.477Z,99132.25
2023-04-16T08:38:21.435Z,99136.36
2023-04-16T08:40:52.359Z,99139.65
2023-04-16T08:43:27.275Z,99139.15
2023-04-16T08:45:59.300Z,99149.61
2023-04-16T08:48:34.622Z,99147.80
2023-04-16T08:51:07.392Z,99149.95
2023-04-16T08:53:55.080Z,99150.77
2023-04-16T08:56:27.372Z,99155.91
2023-04-16T08:58:58.577Z,99155.35
2023-04-16T09:01:32.333Z,99156.41
2023-04-16T09:04:04.193Z,99162.48
2023-04-16T09:06:36.029Z,99161.81
2023-04-16T09:09:08.359Z,99169.36
2023-04-16T09:11:40.719Z,99169.09
2023-04-16T09:14:13.041Z,99169.94
2023-04-16T09:16:45.660Z,99174.27
2023-04-16T09:19:17.359Z,99172.81
2023-04-16T09:21:49.426Z,99176.23
2023-04-16T09:24:20.808Z,99175.67
2023-04-16T09:26:52.756Z,99177.63
2023-04-16T09:29:37.701Z,99178.40
2023-04-16T09:32:10.706Z,99175.10
2023-04-16T09:34:59.770Z,99174.86
2023-04-16T09:37:31.740Z,99173.80
2023-04-16T09:40:04.141Z,99172.80
2023-04-16T09:42:37.136Z,99172.91
2023-04-16T09:45:09.565Z,99173.20
2023-04-16T09:47:45.155Z,99174.11
2023-04-16T09:50:19.965Z,99174.08
2023-04-16T09:52:53.019Z,99170.30
2023-04-16T09:55:29.910Z,99172.16
2023-04-16T09:58:04.088Z,99170.16
2023-04-16T10:00:34.865Z,99174.75
2023-04-16T10:03:09.258Z,99177.64
2023-04-16T10:05:40.164Z,99176.14
2023-04-16T10:08:18.872Z,99174.54
2023-04-16T10:10:49.935Z,99174.48
2023-04-16T10:13:20.965Z,99175.55
2023-04-16T10:15:52.796Z,99173.56
2023-04-16T10:18:23.730Z,99171.30
2023-04-16T10:20:54.693Z,99172.86
2023-04-16T10:23:27.047Z,99172.77
2023-04-16T10:25:58.447Z,99171.89
2023-04-16T10:28:29.945Z,99170.27
2023-04-16T10:31:02.578Z,99169.30
2023-04-16T10:33:36.786Z,99165.41
2023-04-16T10:36:16.672Z,99166.54
2023-04-16T10:38:48.383Z,99161.44
2023-04-16T10:41:21.191Z,99162.88
2023-04-16T10:43:52.753Z,99165.95
2023-04-16T10:46:28.949Z,99163.53
2023-04-16T10:49:03.954Z,99165.10
2023-04-16T10:51:37.575Z,99168.18
2023-04-16T10:54:27.427Z,99165.08
2023-04-16T10:57:04.664Z,99165.14
2023-04-16T10:59:36.862Z,99164.69
2023-04-16T11:02:14.337Z,99166.64
2023-04-16T11:04:47.715Z,99165.46
2023-04-16T11:07:23.877Z,99166.45
2023-04-16T11:09:59.876Z,99162.15
2023-04-16T11:12:38.603Z,99167.05
2023-04-16T11:15:12.545Z,99169.66
2023-04-16T11:17:44.773Z,99171.02
2023-04-16T11:20:21.423Z,99171.95
2023-04-16T11:22:53.323Z,99175.02
2023-04-16T11:25:25.404Z,99174.44
2023-04-16T11:27:57.111Z,99173.88
2023-04-16T11:30:34.087Z,99173.89
2023-04-16T11:33:08.926Z,99174.77
2023-04-16T11:35:41.739Z,99175.44
2023-04-16T11:38:12.720Z,99177.34
2023-04-16T11:40:45.777Z,99175.32
2023-04-16T11:43:18.127Z,99176.40
2023-04-16T11:46:00.459Z,99176.18
2023-04-16T11:48:49.262Z,99176.91
2023-04-16T11:51:21.942Z,99172.65
2023-04-16T11:53:54.090Z,99170.96
2023-04-16T11:56:34.673Z,99172.93
2023-04-16T11:59:14.215Z,99168.99
2023-04-16T12:01:49.632Z,99167.29
2023-04-16T12:04:23.026Z,99164.61
2023-04-16T12:07:11.363Z,99168.13
2023-04-16T12:09:43.651Z,99166.05
2023-04-16T12:12:32.142Z,99162.52
2023-04-16T12:15:05.764Z,99169.95
2023-04-16T12:17:38.335Z,99169.44
2023-04-16T12:20:13.932Z,99171.02
2023-04-16T12:22:48.152Z,99168.49
2023-04-16T12:25:19.943Z,99168.77
2023-04-16T12:27:53.745Z,99165.40
2023-04-16T12:30:30.119Z,99162.46
2023-04-16T12:33:18.247Z,99169.61
2023-04-16T12:35:49.890Z,99165.72
2023-04-16T12:38:22.803Z,99170.25
2023-04-16T12:40:57.247Z,99168.63
2023-04-16T12:43:29.142Z,99168.61
2023-04-16T12:46:01.188Z,99166.92
2023-04-16T12:48:33.993Z,99164.11
2023-04-16T12:51:05.402Z,99162.95
2023-04-16T12:53:36.131Z,99165.20
2023-04-16T12:56:07.345Z,99165.54
2023-04-16T12:58:38.343Z,99164.52
2023-04-16T13:01:09.284Z,99165.76
2023-04-16T13:03:41.408Z,99161.80
2023-04-16T13:06:12.545Z,99158.27
2023-04-16T13:08:44.212Z,99155.22
2023-04-16T13:11:15.799Z,99156.48
2023-04-16T13:13:46.501Z,99157.83
2023-04-16T13:16:17.546Z,99157.05
2023-04-16T13:18:48.460Z,99159.65
2023-04-16T13:21:19.373Z,99164.19
2023-04-16T13:23:50.332Z,99162.56
2023-04-16T13:26:21.111Z,99163.18
2023-04-16T13:28:51.974Z,99161.50
2023-04-16T13:31:22.974Z,99163.69
2023-04-16T13:33:53.804Z,99162.69
2023-04-16T13:36:26.327Z,99158.05
2023-04-16T13:38:58.576Z,99158.05
2023-04-16T13:41:29.571Z,99156.54
2023-04-16T13:44:00.304Z,99155.67
2023-04-16T13:46:31.202Z,99153.48
2023-04-16T13:49:02.596Z,99159.77
2023-04-16T13:51:34.102Z,99155.61
2023-04-16T13:54:05.308Z,99154.66
2023-04-16T13:56:36.024Z,99156.12
2023-04-16T13:59:07.111Z,99151.02
2023-04-16T14:01:37.888Z,99153.60
2023-04-16T14:04:09.619Z,99156.71
2023-04-16T14:06:40.372Z,99155.05
2023-04-16T14:09:11.892Z,99153.20
2023-04-16T14:11:43.269Z,99155.23
2023-04-16T14:14:14.386Z,99161.97
2023-04-16T14:16:45.650Z,99156.83
2023-04-16T14:19:16.857Z,99158.80
2023-04-16T14:21:47.594Z,99160.81
2023-04-16T14:24:18.347Z,99162.40
2023-04-16T14:26:49.127Z,99162.59
2023-04-16T14:29:19.894Z,99163.80
2023-04-16T14:31:51.043Z,99160.89
2023-04-16T14:34:22.153Z,99160.55
2023-04-16T14:36:53.170Z,99163.09
2023-04-16T14:39:24.223Z,99162.80
2023-04-16T14:41:55.292Z,99161.02
2023-04-16T14:44:26.210Z,99160.42
2023-04-16T14:46:57.288Z,99165.18
2023-04-16T14:49:28.315Z,99166.83
2023-04-16T14:51:59.336Z,99165.70
2023-04-16T14:54:30.101Z,99164.99
2023-04-16T14:57:02.002Z,99163.08
2023-04-16T14:59:32.936Z,99165.33
2023-04-16T15:02:03.843Z,99168.20
2023-04-16T15:04:34.736Z,99166.11
2023-04-16T15:07:05.771Z,99164.16
2023-04-16T15:09:36.776Z,99169.11
2023-04-16T15:12:08.130Z,99168.29
2023-04-16T15:14:39.059Z,99168.64
2023-04-16T15:17:10.220Z,99173.93
2023-04-16T15:19:41.526Z,99169.10
2023-04-16T15:22:12.754Z,99169.73
2023-04-16T15:24:43.687Z,99170.77
2023-04-16T15:27:15.082Z,99170.98
2023-04-16T15:29:46.854Z,99173.38
2023-04-16T15:32:17.688Z,99165.66
2023-04-16T15:34:48.669Z,99172.05
2023-04-16T15:37:19.978Z,99175.52
2023-04-16T15:39:51.163Z,99180.50
2023-04-16T15:42:22.229Z,99181.45
2023-04-16T15:44:54.264Z,99180.33
2023-04-16T15:47:25.604Z,99180.83
2023-04-16T15:49:56.564Z,99178.89
2023-04-16T15:52:27.526Z,99181.01
2023-04-16T15:54:58.968Z,99187.08
2023-04-16T15:57:29.851Z,99194.21
2023-04-16T16:00:06.389Z,99196.09
2023-04-16T16:02:38.269Z,99197.36
2023-04-16T16:05:12.869Z,99198.29
2023-04-16T16:07:44.291Z,99201.44
2023-04-16T16:10:15.792Z,99207.04
2023-04-16T16:12:46.634Z,99206.92
2023-04-16T16:15:17.722Z,99207.21
2023-04-16T16:17:48.777Z,99208.42
2023-04-16T16:20:19.809Z,99211.88
2023-04-16T16:22:54.068Z,99212.60
2023-04-16T16:25:25.334Z,99213.80
2023-04-16T16:27:56.062Z,99215.34
2023-04-16T16:30:27.417Z,99218.29
2023-04-16T16:32:58.401Z,99218.95
2023-04-16T16:35:29.268Z,99221.51
2023-04-16T16:38:01.985Z,99218.23
2023-04-16T16:40:33.421Z,99219.48
2023-04-16T16:43:04.532Z,99223.86
2023-04-16T16:45:35.427Z,99223.73
2023-04-16T16:48:06.693Z,99223.71
2023-04-16T16:50:37.707Z,99225.44
2023-04-16T16:53:08.604Z,99220.71
2023-04-16T16:55:39.664Z,99226.44
2023-04-16T16:58:12.144Z,99231.88
2023-04-16T17:00:43.445Z,99233.09
2023-04-16T17:03:14.651Z,99237.34
2023-04-16T17:05:46.055Z,99236.99
2023-04-16T17:08:17.094Z,99242.94
2023-04-16T17:10:48.133Z,99244.21
2023-04-16T17:13:20.583Z,99244.09
2023-04-16T17:15:51.543Z,99250.98
2023-04-16T17:18:22.649Z,99250.09
2023-04-16T17:20:53.854Z,99254.20
2023-04-16T17:23:24.942Z,99258.45
2023-04-16T17:25:55.977Z,99260.04
2023-04-16T17:28:27.282Z,99259.80
2023-04-16T17:30:58.696Z,99264.84
2023-04-16T17:33:29.782Z,99270.34
2023-04-16T17:36:00.582Z,99273.49
2023-04-16T17:38:31.736Z,99279.61
2023-04-16T17:41:02.810Z,99283.55
2023-04-16T17:43:33.759Z,99285.52
2023-04-16T17:46:04.776Z,99284.78
2023-04-16T17:48:35.986Z,99287.54
2023-04-16T17:51:13.606Z,99292.14
2023-04-16T17:53:45.304Z,99289.71
2023-04-16T17:56:17.106Z,99297.27
2023-04-16T17:58:48.277Z,99296.70
2023-04-16T18:01:19.685Z,99292.98
2023-04-16T18:03:51.187Z,99295.98
2023-04-16T18:06:22.422Z,99297.34
2023-04-16T18:08:53.684Z,99299.17
2023-04-16T18:11:24.967Z,99300.97
2023-04-16T18:13:56.122Z,99300.45
2023-04-16T18:16:27.204Z,99307.34
2023-04-16T18:18:58.314Z,99307.32
2023-04-16T18:21:30.557Z,99310.92
2023-04-16T18:24:03.603Z,99312.33
2023-04-16T18:26:36.097Z,99316.80
2023-04-16T18:29:08.778Z,99317.94
2023-04-16T18:31:40.595Z,99319.54
2023-04-16T18:34:12.487Z,99325.02
2023-04-16T18:36:43.838Z,99327.61
2023-04-16T18:39:14.907Z,99328.33
2023-04-16T18:41:47.950Z,99329.39
2023-04-16T18:44:19.962Z,99328.54
2023-04-16T18:46:51.275Z,99325.77
2023-04-16T18:49:22.311Z,99323.82
2023-04-16T18:51:55.839Z,99325.73
2023-04-16T18:54:27.686Z,99327.04
2023-04-16T18:57:00.736Z,99327.37
2023-04-16T18:59:32.047Z,99332.02
2023-04-16T19:02:03.948Z,99332.30
2023-04-16T19:04:35.606Z,99336.16
2023-04-16T19:07:06.664Z,99339.30
2023-04-16T19:09:37.848Z,99341.15
2023-04-16T19:12:09.572Z,99340.46
2023-04-16T19:14:40.750Z,99341.40
2023-04-16T19:17:12.433Z,99339.25
2023-04-16T19:19:43.371Z,99336.94
2023-04-16T19:22:14.498Z,99335.36
2023-04-16T19:24:45.854Z,99335.95
2023-04-16T19:27:17.012Z,99330.98
2023-04-16T19:29:48.008Z,99331.98
2023-04-16T19:32:18.946Z,99333.84
2023-04-16T19:34:49.836Z,99335.91
2023-04-16T19:37:20.788Z,99338.48
2023-04-16T19:39:51.934Z,99335.50
2023-04-16T19:42:23.029Z,99337.42
2023-04-16T19:44:54.293Z,99339.11
2023-04-16T19:47:25.305Z,99338.73
2023-04-16T19:49:56.655Z,99340.57
2023-04-16T19:52:27.813Z,99342.02
2023-04-16T19:54:58.832Z,99345.07
2023-04-16T19:57:30.086Z,99340.92
2023-04-16T20:00:01.566Z,99347.34
2023-04-16T20:02:33.035Z,99349.02
2023-04-16T20:05:08.198Z,99352.33
2023-04-16T20:07:39.431Z,99350.52
2023-04-16T20:10:11.892Z,99352.04
2023-04-16T20:12:42.792Z,99354.73
2023-04-16T20:15:14.771Z,99359.40
2023-04-16T20:17:45.956Z,99363.30
2023-04-16T20:20:17.567Z,99359.02
2023-04-16T20:22:48.576Z,99363.95
2023-04-16T20:25:20.699Z,99359.85
2023-04-16T20:27:51.665Z,99363.88
2023-04-16T20:30:28.832Z,99366.36
2023-04-16T20:32:59.673Z,99365.70
2023-04-16T20:35:30.609Z,99364.52
2023-04-16T20:38:01.635Z,99368.69
2023-04-16T20:40:32.453Z,99367.42
2023-04-16T20:43:03.543Z,99364.79
2023-04-16T20:45:38.402Z,99365.48
2023-04-16T20:48:09.567Z,99371.84
2023-04-16T20:50:40.798Z,99366.26
2023-04-16T20:53:13.150Z,99364.52
2023-04-16T20:55:45.696Z,99366.17
2023-04-16T20:58:16.541Z,99367.79
2023-04-16T21:00:52.202Z,99374.80
2023-04-16T21:03:23.070Z,99374.85
2023-04-16T21:05:55.495Z,99374.38
2023-04-16T21:08:26.717Z,99372.27
2023-04-16T21:10:57.605Z,99373.59
2023-04-16T21:13:28.373Z,99376.60
2023-04-16T21:15:59.312Z,99376.94
2023-04-16T21:18:30.608Z,99377.02
2023-04-16T21:21:01.773Z,99373.41
2023-04-16T21:23:32.513Z,99369.14
2023-04-16T21:26:03.451Z,99371.58
2023-04-16T21:28:34.107Z,99375.65
2023-04-16T21:31:05.195Z,99379.41
2023-04-16T21:33:36.102Z,99377.83
2023-04-16T21:36:07.657Z,99371.65
2023-04-16T21:38:38.472Z,99371.17
2023-04-16T21:41:09.520Z,99378.18
2023-04-16T21:43:40.860Z,99378.52
2023-04-16T21:46:11.985Z,99377.14
2023-04-16T21:48:42.813Z,99377.16
2023-04-16T21:51:14.174Z,99374.27
2023-04-16T21:53:45.033Z,99374.42
2023-04-16T21:56:15.795Z,99372.90
2023-04-16T21:58:46.523Z,99371.11
2023-04-16T22:01:17.593Z,99372.42
2023-04-16T22:03:50.780Z,99377.48
2023-04-16T22:06:22.378Z,99375.36
2023-04-16T22:08:53.609Z,99377.51
2023-04-16T22:11:24.526Z,99378.30
2023-04-16T22:13:58.044Z,99380.57
2023-04-16T22:16:29.112Z,99373.05
2023-04-16T22:19:00.275Z,99371.98
2023-04-16T22:21:31.409Z,99369.91
2023-04-16T22:24:02.730Z,99369.80
2023-04-16T22:26:33.541Z,99370.09
2023-04-16T22:29:04.314Z,99371.48
2023-04-16T22:31:35.244Z,99374.16
2023-04-16T22:34:06.067Z,99374.17
2023-04-16T22:36:36.935Z,99371.55
2023-04-16T22:39:08.765Z,99372.10
2023-04-16T22:41:39.607Z,99375.99
2023-04-16T22:44:11.024Z,99376.36
2023-04-16T22:46:42.628Z,99376.80
2023-04-16T22:49:13.515Z,99374.63
2023-04-16T22:51:44.927Z,99373.08
2023-04-16T22:54:16.557Z,99373.66
2023-04-16T22:56:48.694Z,99376.89
2023-04-16T22:59:19.611Z,99380.89
2023-04-16T23:01:50.404Z,99379.45
2023-04-16T23:04:21.423Z,99373.68
2023-04-16T23:06:52.569Z,99371.77
2023-04-16T23:09:23.562Z,99370.71
2023-04-16T23:11:54.226Z,99368.60
2023-04-16T23:14:26.393Z,99365.06
2023-04-16T23:16:57.519Z,99367.10
2023-04-16T23:19:28.266Z,99366.21
2023-04-16T23:21:59.190Z,99364.90
2023-04-16T23:24:29.911Z,99364.88
2023-04-16T23:27:01.577Z,99360.41
2023-04-16T23:29:33.048Z,99359.43
2023-04-16T23:32:04.398Z,99351.33
2023-04-16T23:34:35.250Z,99354.00
2023-04-16T23:37:06.123Z,99354.45
2023-04-16T23:39:37.381Z,99355.77
2023-04-16T23:42:08.323Z,99357.35
2023-04-16T23:44:39.161Z,99355.27
2023-04-16T23:47:09.854Z,99354.39
2023-04-16T23:49:40.592Z,99355.76
2023-04-16T23:52:11.842Z,99355.22
2023-04-16T23:54:42.994Z,99352.60
2023-04-16T23:57:13.983Z,99355.25
2023-04-16T23:59:44.567Z,99359.20
